sensor_id;sensor_type;location;lat;lon;timestamp;temperature;humidity
420;DHT22;42600;54.408;13.016;2022-09-13T00:02:11;15.30;92.70
420;DHT22;42600;54.408;13.016;2022-09-13T00:04:37;15.30;92.70
420;DHT22;42600;54.408;13.016;2022-09-13T00:07:04;15.30;92.70
420;DHT22;42600;54.408;13.016;2022-09-13T00:09:32;15.20;92.70
420;DHT22;42600;54.408;13.016;2022-09-13T00:11:58;15.30;92.70
420;DHT22;42600;54.408;13.016;2022-09-13T00:14:25;15.30;92.70
420;DHT22;42600;54.408;13.016;2022-09-13T00:16:52;15.30;92.70
420;DHT22;42600;54.408;13.016;2022-09-13T00:19:19;15.20;92.70
420;DHT22;42600;54.408;13.016;2022-09-13T00:21:45;15.20;92.70
420;DHT22;42600;54.408;13.016;2022-09-13T00:24:12;15.20;92.70
420;DHT22;42600;54.408;13.016;2022-09-13T00:26:40;15.20;92.70
420;DHT22;42600;54.408;13.016;2022-09-13T00:29:07;15.20;92.70
420;DHT22;42600;54.408;13.016;2022-09-13T00:31:34;15.30;92.70
420;DHT22;42600;54.408;13.016;2022-09-13T00:34:00;15.30;92.70
420;DHT22;42600;54.408;13.016;2022-09-13T00:36:27;15.30;92.70
420;DHT22;42600;54.408;13.016;2022-09-13T00:38:54;15.30;92.70
420;DHT22;42600;54.408;13.016;2022-09-13T00:41:21;15.30;92.70
420;DHT22;42600;54.408;13.016;2022-09-13T00:43:50;15.30;92.70
420;DHT22;42600;54.408;13.016;2022-09-13T00:46:24;15.30;92.70
420;DHT22;42600;54.408;13.016;2022-09-13T00:48:57;15.30;92.70
420;DHT22;42600;54.408;13.016;2022-09-13T00:51:26;15.30;92.70
420;DHT22;42600;54.408;13.016;2022-09-13T00:53:53;15.20;92.70
420;DHT22;42600;54.408;13.016;2022-09-13T00:56:27;15.20;92.70
420;DHT22;42600;54.408;13.016;2022-09-13T00:58:59;15.20;92.70
420;DHT22;42600;54.408;13.016;2022-09-13T01:01:31;15.20;92.70
420;DHT22;42600;54.408;13.016;2022-09-13T01:03:59;15.20;92.70
420;DHT22;42600;54.408;13.016;2022-09-13T01:06:28;15.20;92.70
420;DHT22;42600;54.408;13.016;2022-09-13T01:08:57;15.30;92.70
420;DHT22;42600;54.408;13.016;2022-09-13T01:11:32;15.30;92.70
420;DHT22;42600;54.408;13.016;2022-09-13T01:14:02;15.20;92.70
420;DHT22;42600;54.408;13.016;2022-09-13T01:16:30;15.30;92.70
420;DHT22;42600;54.408;13.016;2022-09-13T01:18:57;15.30;92.70
420;DHT22;42600;54.408;13.016;2022-09-13T01:21:48;15.20;92.70
420;DHT22;42600;54.408;13.016;2022-09-13T01:24:45;15.30;92.70
420;DHT22;42600;54.408;13.016;2022-09-13T01:27:32;15.30;92.70
420;DHT22;42600;54.408;13.016;2022-09-13T01:30:18;15.20;92.70
420;DHT22;42600;54.408;13.016;2022-09-13T01:33:01;15.20;92.70
420;DHT22;42600;54.408;13.016;2022-09-13T01:35:43;15.20;92.70
420;DHT22;42600;54.408;13.016;2022-09-13T01:38:26;15.20;92.70
420;DHT22;42600;54.408;13.016;2022-09-13T01:41:05;15.20;92.70
420;DHT22;42600;54.408;13.016;2022-09-13T01:43:41;15.10;92.70
420;DHT22;42600;54.408;13.016;2022-09-13T01:46:17;15.10;92.70
420;DHT22;42600;54.408;13.016;2022-09-13T01:48:56;15.20;92.70
420;DHT22;42600;54.408;13.016;2022-09-13T01:51:28;15.20;92.70
420;DHT22;42600;54.408;13.016;2022-09-13T01:54:05;15.20;92.70
420;DHT22;42600;54.408;13.016;2022-09-13T01:56:38;15.20;92.70
420;DHT22;42600;54.408;13.016;2022-09-13T01:59:12;15.20;92.70
420;DHT22;42600;54.408;13.016;2022-09-13T02:01:46;15.20;92.70
420;DHT22;42600;54.408;13.016;2022-09-13T02:04:17;15.10;92.70
420;DHT22;42600;54.408;13.016;2022-09-13T02:06:48;15.10;92.70
420;DHT22;42600;54.408;13.016;2022-09-13T02:09:20;15.10;92.70
420;DHT22;42600;54.408;13.016;2022-09-13T02:11:50;15.20;92.70
420;DHT22;42600;54.408;13.016;2022-09-13T02:14:21;15.20;92.70
420;DHT22;42600;54.408;13.016;2022-09-13T02:16:55;15.20;92.70
420;DHT22;42600;54.408;13.016;2022-09-13T02:19:27;15.20;92.70
420;DHT22;42600;54.408;13.016;2022-09-13T02:21:59;15.30;92.70
420;DHT22;42600;54.408;13.016;2022-09-13T02:24:30;15.30;92.70
420;DHT22;42600;54.408;13.016;2022-09-13T02:27:00;15.30;92.70
420;DHT22;42600;54.408;13.016;2022-09-13T02:29:28;15.30;92.70
420;DHT22;42600;54.408;13.016;2022-09-13T02:32:00;15.30;92.70
420;DHT22;42600;54.408;13.016;2022-09-13T02:34:33;15.30;92.70
420;DHT22;42600;54.408;13.016;2022-09-13T02:37:03;15.30;92.70
420;DHT22;42600;54.408;13.016;2022-09-13T02:39:33;15.30;92.70
420;DHT22;42600;54.408;13.016;2022-09-13T02:42:05;15.30;92.70
420;DHT22;42600;54.408;13.016;2022-09-13T02:44:36;15.30;92.70
420;DHT22;42600;54.408;13.016;2022-09-13T02:47:15;15.40;92.70
420;DHT22;42600;54.408;13.016;2022-09-13T02:49:56;15.40;92.70
420;DHT22;42600;54.408;13.016;2022-09-13T02:52:33;15.40;92.70
420;DHT22;42600;54.408;13.016;2022-09-13T02:55:07;15.30;92.70
420;DHT22;42600;54.408;13.016;2022-09-13T02:57:44;15.30;92.70
420;DHT22;42600;54.408;13.016;2022-09-13T03:00:14;15.30;92.70
420;DHT22;42600;54.408;13.016;2022-09-13T03:02:43;15.30;92.70
420;DHT22;42600;54.408;13.016;2022-09-13T03:05:10;15.30;92.70
420;DHT22;42600;54.408;13.016;2022-09-13T03:07:37;15.30;92.70
420;DHT22;42600;54.408;13.016;2022-09-13T03:10:06;15.30;92.70
420;DHT22;42600;54.408;13.016;2022-09-13T03:13:00;15.30;92.70
420;DHT22;42600;54.408;13.016;2022-09-13T03:15:42;15.20;92.70
420;DHT22;42600;54.408;13.016;2022-09-13T03:18:19;15.20;92.70
420;DHT22;42600;54.408;13.016;2022-09-13T03:21:00;15.30;92.70
420;DHT22;42600;54.408;13.016;2022-09-13T03:23:43;15.20;92.70
420;DHT22;42600;54.408;13.016;2022-09-13T03:26:22;15.20;92.70
420;DHT22;42600;54.408;13.016;2022-09-13T03:28:56;15.20;92.70
420;DHT22;42600;54.408;13.016;2022-09-13T03:31:32;15.20;92.70
420;DHT22;42600;54.408;13.016;2022-09-13T03:34:07;15.20;92.70
420;DHT22;42600;54.408;13.016;2022-09-13T03:36:37;15.20;92.70
420;DHT22;42600;54.408;13.016;2022-09-13T03:39:10;15.20;92.70
420;DHT22;42600;54.408;13.016;2022-09-13T03:41:42;15.20;92.70
420;DHT22;42600;54.408;13.016;2022-09-13T03:44:11;15.10;92.70
420;DHT22;42600;54.408;13.016;2022-09-13T03:46:41;15.10;92.70
420;DHT22;42600;54.408;13.016;2022-09-13T03:49:12;15.10;92.70
420;DHT22;42600;54.408;13.016;2022-09-13T03:51:39;15.20;92.70
420;DHT22;42600;54.408;13.016;2022-09-13T03:54:10;15.20;92.70
420;DHT22;42600;54.408;13.016;2022-09-13T03:56:39;15.10;92.70
420;DHT22;42600;54.408;13.016;2022-09-13T03:59:06;15.10;92.70
420;DHT22;42600;54.408;13.016;2022-09-13T04:01:33;15.10;92.70
420;DHT22;42600;54.408;13.016;2022-09-13T04:03:59;15.10;92.70
420;DHT22;42600;54.408;13.016;2022-09-13T04:06:27;15.10;92.70
420;DHT22;42600;54.408;13.016;2022-09-13T04:08:54;15.10;92.70
420;DHT22;42600;54.408;13.016;2022-09-13T04:11:21;15.10;92.70
420;DHT22;42600;54.408;13.016;2022-09-13T04:13:48;15.20;92.70
420;DHT22;42600;54.408;13.016;2022-09-13T04:16:15;15.10;92.70
420;DHT22;42600;54.408;13.016;2022-09-13T04:18:42;15.10;92.70
420;DHT22;42600;54.408;13.016;2022-09-13T04:21:08;15.10;92.70
420;DHT22;42600;54.408;13.016;2022-09-13T04:23:36;15.20;92.70
420;DHT22;42600;54.408;13.016;2022-09-13T04:26:04;15.20;92.70
420;DHT22;42600;54.408;13.016;2022-09-13T04:28:31;15.10;92.70
420;DHT22;42600;54.408;13.016;2022-09-13T04:30:57;15.10;92.70
420;DHT22;42600;54.408;13.016;2022-09-13T04:33:24;15.10;92.70
420;DHT22;42600;54.408;13.016;2022-09-13T04:35:56;15.10;92.70
420;DHT22;42600;54.408;13.016;2022-09-13T04:38:22;15.10;92.70
420;DHT22;42600;54.408;13.016;2022-09-13T04:40:54;15.10;92.70
420;DHT22;42600;54.408;13.016;2022-09-13T04:43:21;15.10;92.70
420;DHT22;42600;54.408;13.016;2022-09-13T04:45:48;15.10;92.70
420;DHT22;42600;54.408;13.016;2022-09-13T04:48:15;15.20;92.70
420;DHT22;42600;54.408;13.016;2022-09-13T04:50:41;15.10;92.70
420;DHT22;42600;54.408;13.016;2022-09-13T04:53:09;15.20;92.70
420;DHT22;42600;54.408;13.016;2022-09-13T04:55:36;15.20;92.70
420;DHT22;42600;54.408;13.016;2022-09-13T04:58:04;15.20;92.70
420;DHT22;42600;54.408;13.016;2022-09-13T05:00:31;15.20;92.70
420;DHT22;42600;54.408;13.016;2022-09-13T05:02:58;15.20;92.70
420;DHT22;42600;54.408;13.016;2022-09-13T05:05:25;15.20;92.70
420;DHT22;42600;54.408;13.016;2022-09-13T05:07:53;15.20;92.70
420;DHT22;42600;54.408;13.016;2022-09-13T05:10:20;15.20;92.70
420;DHT22;42600;54.408;13.016;2022-09-13T05:12:46;15.20;92.70
420;DHT22;42600;54.408;13.016;2022-09-13T05:15:14;15.20;92.70
420;DHT22;42600;54.408;13.016;2022-09-13T05:17:41;15.20;92.70
420;DHT22;42600;54.408;13.016;2022-09-13T05:20:08;15.20;92.70
420;DHT22;42600;54.408;13.016;2022-09-13T05:22:35;15.20;92.70
420;DHT22;42600;54.408;13.016;2022-09-13T05:25:02;15.20;92.70
420;DHT22;42600;54.408;13.016;2022-09-13T05:27:29;15.10;92.70
420;DHT22;42600;54.408;13.016;2022-09-13T05:29:55;15.20;92.70
420;DHT22;42600;54.408;13.016;2022-09-13T05:32:23;15.20;92.70
420;DHT22;42600;54.408;13.016;2022-09-13T05:34:50;15.20;92.70
420;DHT22;42600;54.408;13.016;2022-09-13T05:37:17;15.20;92.70
420;DHT22;42600;54.408;13.016;2022-09-13T05:39:43;15.20;92.70
420;DHT22;42600;54.408;13.016;2022-09-13T05:42:10;15.20;92.70
420;DHT22;42600;54.408;13.016;2022-09-13T05:44:37;15.20;92.70
420;DHT22;42600;54.408;13.016;2022-09-13T05:47:03;15.20;92.70
420;DHT22;42600;54.408;13.016;2022-09-13T05:49:31;15.20;92.70
420;DHT22;42600;54.408;13.016;2022-09-13T05:51:58;15.20;92.70
420;DHT22;42600;54.408;13.016;2022-09-13T05:54:25;15.20;92.70
420;DHT22;42600;54.408;13.016;2022-09-13T05:56:51;15.20;92.70
420;DHT22;42600;54.408;13.016;2022-09-13T05:59:21;15.30;92.70
420;DHT22;42600;54.408;13.016;2022-09-13T06:01:48;15.30;92.70
420;DHT22;42600;54.408;13.016;2022-09-13T06:04:15;15.30;92.70
420;DHT22;42600;54.408;13.016;2022-09-13T06:06:43;15.30;92.70
420;DHT22;42600;54.408;13.016;2022-09-13T06:09:10;15.30;92.70
420;DHT22;42600;54.408;13.016;2022-09-13T06:11:37;15.30;92.70
420;DHT22;42600;54.408;13.016;2022-09-13T06:14:04;15.30;92.70
420;DHT22;42600;54.408;13.016;2022-09-13T06:16:30;15.40;92.70
420;DHT22;42600;54.408;13.016;2022-09-13T06:18:57;15.40;92.70
420;DHT22;42600;54.408;13.016;2022-09-13T06:21:23;15.40;92.70
420;DHT22;42600;54.408;13.016;2022-09-13T06:23:52;15.40;92.70
420;DHT22;42600;54.408;13.016;2022-09-13T06:26:21;15.50;92.70
420;DHT22;42600;54.408;13.016;2022-09-13T06:28:49;15.50;92.70
420;DHT22;42600;54.408;13.016;2022-09-13T06:31:18;15.50;92.70
420;DHT22;42600;54.408;13.016;2022-09-13T06:33:45;15.50;92.70
420;DHT22;42600;54.408;13.016;2022-09-13T06:36:13;15.50;92.70
420;DHT22;42600;54.408;13.016;2022-09-13T06:38:43;15.50;92.70
420;DHT22;42600;54.408;13.016;2022-09-13T06:41:13;15.50;92.70
420;DHT22;42600;54.408;13.016;2022-09-13T06:43:40;15.50;92.70
420;DHT22;42600;54.408;13.016;2022-09-13T06:46:08;15.60;92.70
420;DHT22;42600;54.408;13.016;2022-09-13T06:48:37;15.60;92.70
420;DHT22;42600;54.408;13.016;2022-09-13T06:51:06;15.60;92.70
420;DHT22;42600;54.408;13.016;2022-09-13T06:53:33;15.60;92.70
420;DHT22;42600;54.408;13.016;2022-09-13T06:56:02;15.60;92.70
420;DHT22;42600;54.408;13.016;2022-09-13T06:58:30;15.70;92.70
420;DHT22;42600;54.408;13.016;2022-09-13T07:01:08;15.70;92.70
420;DHT22;42600;54.408;13.016;2022-09-13T07:03:38;15.70;92.70
420;DHT22;42600;54.408;13.016;2022-09-13T07:06:09;15.70;92.70
420;DHT22;42600;54.408;13.016;2022-09-13T07:08:37;15.70;92.70
420;DHT22;42600;54.408;13.016;2022-09-13T07:11:05;15.70;92.70
420;DHT22;42600;54.408;13.016;2022-09-13T07:13:33;15.70;92.70
420;DHT22;42600;54.408;13.016;2022-09-13T07:16:01;15.80;92.70
420;DHT22;42600;54.408;13.016;2022-09-13T07:18:28;15.70;92.70
420;DHT22;42600;54.408;13.016;2022-09-13T07:20:58;15.70;92.70
420;DHT22;42600;54.408;13.016;2022-09-13T07:23:26;15.80;92.70
420;DHT22;42600;54.408;13.016;2022-09-13T07:25:53;15.80;92.70
420;DHT22;42600;54.408;13.016;2022-09-13T07:28:20;15.70;92.70
420;DHT22;42600;54.408;13.016;2022-09-13T07:30:48;15.80;92.70
420;DHT22;42600;54.408;13.016;2022-09-13T07:33:15;15.80;92.70
420;DHT22;42600;54.408;13.016;2022-09-13T07:35:41;15.80;92.70
420;DHT22;42600;54.408;13.016;2022-09-13T07:38:08;15.80;92.70
420;DHT22;42600;54.408;13.016;2022-09-13T07:40:34;15.80;92.70
420;DHT22;42600;54.408;13.016;2022-09-13T07:43:01;15.80;92.70
420;DHT22;42600;54.408;13.016;2022-09-13T07:45:28;15.80;92.70
420;DHT22;42600;54.408;13.016;2022-09-13T07:47:56;15.90;92.70
420;DHT22;42600;54.408;13.016;2022-09-13T07:50:23;15.90;92.70
420;DHT22;42600;54.408;13.016;2022-09-13T07:52:49;15.90;92.70
420;DHT22;42600;54.408;13.016;2022-09-13T07:55:16;15.90;92.70
420;DHT22;42600;54.408;13.016;2022-09-13T07:57:42;15.90;92.70
420;DHT22;42600;54.408;13.016;2022-09-13T08:00:10;16.00;92.70
420;DHT22;42600;54.408;13.016;2022-09-13T08:02:36;16.00;92.70
420;DHT22;42600;54.408;13.016;2022-09-13T08:05:05;16.00;92.70
420;DHT22;42600;54.408;13.016;2022-09-13T08:07:32;16.10;92.70
420;DHT22;42600;54.408;13.016;2022-09-13T08:09:58;16.10;92.70
420;DHT22;42600;54.408;13.016;2022-09-13T08:12:25;16.20;92.70
420;DHT22;42600;54.408;13.016;2022-09-13T08:14:51;16.20;92.70
420;DHT22;42600;54.408;13.016;2022-09-13T08:17:18;16.20;92.70
420;DHT22;42600;54.408;13.016;2022-09-13T08:19:44;16.30;92.70
420;DHT22;42600;54.408;13.016;2022-09-13T08:22:12;16.30;92.70
420;DHT22;42600;54.408;13.016;2022-09-13T08:24:39;16.30;92.70
420;DHT22;42600;54.408;13.016;2022-09-13T08:27:06;16.50;92.70
420;DHT22;42600;54.408;13.016;2022-09-13T08:29:32;16.60;92.70
420;DHT22;42600;54.408;13.016;2022-09-13T08:31:59;16.60;92.70
420;DHT22;42600;54.408;13.016;2022-09-13T08:34:25;16.70;92.70
420;DHT22;42600;54.408;13.016;2022-09-13T08:36:52;16.80;92.70
420;DHT22;42600;54.408;13.016;2022-09-13T08:39:20;16.90;92.70
420;DHT22;42600;54.408;13.016;2022-09-13T08:42:03;17.00;92.70
420;DHT22;42600;54.408;13.016;2022-09-13T08:44:34;17.20;92.70
420;DHT22;42600;54.408;13.016;2022-09-13T08:50:00;17.40;92.70
420;DHT22;42600;54.408;13.016;2022-09-13T08:52:32;17.40;92.70
420;DHT22;42600;54.408;13.016;2022-09-13T08:55:03;17.50;92.70
420;DHT22;42600;54.408;13.016;2022-09-13T08:57:40;17.50;92.70
420;DHT22;42600;54.408;13.016;2022-09-13T09:00:15;17.60;92.70
420;DHT22;42600;54.408;13.016;2022-09-13T09:03:01;17.70;92.70
420;DHT22;42600;54.408;13.016;2022-09-13T09:05:32;17.90;92.70
420;DHT22;42600;54.408;13.016;2022-09-13T09:08:12;17.90;92.70
420;DHT22;42600;54.408;13.016;2022-09-13T09:10:45;18.00;92.70
420;DHT22;42600;54.408;13.016;2022-09-13T09:13:20;18.00;92.70
420;DHT22;42600;54.408;13.016;2022-09-13T09:15:50;18.00;92.70
420;DHT22;42600;54.408;13.016;2022-09-13T09:18:21;18.10;92.70
420;DHT22;42600;54.408;13.016;2022-09-13T09:20:50;18.10;92.70
420;DHT22;42600;54.408;13.016;2022-09-13T09:23:19;18.10;92.70
420;DHT22;42600;54.408;13.016;2022-09-13T09:25:50;18.10;92.70
420;DHT22;42600;54.408;13.016;2022-09-13T09:28:17;18.20;92.70
420;DHT22;42600;54.408;13.016;2022-09-13T09:30:52;18.20;92.70
420;DHT22;42600;54.408;13.016;2022-09-13T09:33:36;18.20;92.70
420;DHT22;42600;54.408;13.016;2022-09-13T09:36:12;18.20;92.70
420;DHT22;42600;54.408;13.016;2022-09-13T09:38:42;18.20;92.70
420;DHT22;42600;54.408;13.016;2022-09-13T09:41:14;18.30;92.70
420;DHT22;42600;54.408;13.016;2022-09-13T09:43:46;18.30;92.70
420;DHT22;42600;54.408;13.016;2022-09-13T09:46:14;18.30;92.10
420;DHT22;42600;54.408;13.016;2022-09-13T09:48:47;18.40;91.60
420;DHT22;42600;54.408;13.016;2022-09-13T09:51:17;18.40;91.50
420;DHT22;42600;54.408;13.016;2022-09-13T09:53:47;18.50;91.50
420;DHT22;42600;54.408;13.016;2022-09-13T09:56:22;18.50;90.20
420;DHT22;42600;54.408;13.016;2022-09-13T09:58:49;18.60;89.90
420;DHT22;42600;54.408;13.016;2022-09-13T10:01:22;18.60;89.80
420;DHT22;42600;54.408;13.016;2022-09-13T10:03:51;18.70;90.30
420;DHT22;42600;54.408;13.016;2022-09-13T10:06:21;18.70;89.30
420;DHT22;42600;54.408;13.016;2022-09-13T10:08:54;18.80;89.10
420;DHT22;42600;54.408;13.016;2022-09-13T10:11:37;18.80;88.70
420;DHT22;42600;54.408;13.016;2022-09-13T10:14:04;18.90;88.90
420;DHT22;42600;54.408;13.016;2022-09-13T10:16:31;19.00;88.70
420;DHT22;42600;54.408;13.016;2022-09-13T10:19:20;19.10;89.00
420;DHT22;42600;54.408;13.016;2022-09-13T10:21:59;19.20;88.90
420;DHT22;42600;54.408;13.016;2022-09-13T10:24:26;19.30;88.10
420;DHT22;42600;54.408;13.016;2022-09-13T10:26:55;19.40;88.00
420;DHT22;42600;54.408;13.016;2022-09-13T10:29:23;19.40;87.20
420;DHT22;42600;54.408;13.016;2022-09-13T10:31:51;19.50;87.10
420;DHT22;42600;54.408;13.016;2022-09-13T10:34:21;19.50;86.30
420;DHT22;42600;54.408;13.016;2022-09-13T10:36:52;19.60;86.30
420;DHT22;42600;54.408;13.016;2022-09-13T10:39:21;19.70;85.70
420;DHT22;42600;54.408;13.016;2022-09-13T10:41:51;19.70;85.70
420;DHT22;42600;54.408;13.016;2022-09-13T10:44:26;19.80;85.30
420;DHT22;42600;54.408;13.016;2022-09-13T10:46:54;19.80;84.10
420;DHT22;42600;54.408;13.016;2022-09-13T10:49:43;19.80;83.60
420;DHT22;42600;54.408;13.016;2022-09-13T10:52:31;19.80;82.90
420;DHT22;42600;54.408;13.016;2022-09-13T10:55:31;19.90;82.90
420;DHT22;42600;54.408;13.016;2022-09-13T10:58:16;19.90;81.90
420;DHT22;42600;54.408;13.016;2022-09-13T11:01:01;19.80;81.20
420;DHT22;42600;54.408;13.016;2022-09-13T11:03:40;19.80;80.70
420;DHT22;42600;54.408;13.016;2022-09-13T11:06:15;19.80;81.20
420;DHT22;42600;54.408;13.016;2022-09-13T11:08:52;19.90;81.50
420;DHT22;42600;54.408;13.016;2022-09-13T11:11:26;20.00;80.70
420;DHT22;42600;54.408;13.016;2022-09-13T11:14:08;19.90;80.00
420;DHT22;42600;54.408;13.016;2022-09-13T11:16:45;20.00;79.20
420;DHT22;42600;54.408;13.016;2022-09-13T11:19:37;20.00;79.50
420;DHT22;42600;54.408;13.016;2022-09-13T11:22:22;20.10;79.70
420;DHT22;42600;54.408;13.016;2022-09-13T11:25:02;20.00;78.00
420;DHT22;42600;54.408;13.016;2022-09-13T11:27:43;20.00;78.30
420;DHT22;42600;54.408;13.016;2022-09-13T11:30:16;19.90;78.00
420;DHT22;42600;54.408;13.016;2022-09-13T11:32:54;19.90;77.90
420;DHT22;42600;54.408;13.016;2022-09-13T11:35:35;19.80;78.40
420;DHT22;42600;54.408;13.016;2022-09-13T11:38:18;19.80;78.20
420;DHT22;42600;54.408;13.016;2022-09-13T11:40:54;19.90;79.20
420;DHT22;42600;54.408;13.016;2022-09-13T11:43:41;19.90;79.40
420;DHT22;42600;54.408;13.016;2022-09-13T11:46:19;20.00;79.50
420;DHT22;42600;54.408;13.016;2022-09-13T11:51:51;19.80;76.20
420;DHT22;42600;54.408;13.016;2022-09-13T11:54:27;19.80;74.90
420;DHT22;42600;54.408;13.016;2022-09-13T11:57:01;19.80;73.20
420;DHT22;42600;54.408;13.016;2022-09-13T11:59:36;19.70;72.90
420;DHT22;42600;54.408;13.016;2022-09-13T12:02:17;19.70;73.20
420;DHT22;42600;54.408;13.016;2022-09-13T12:04:50;19.70;73.60
420;DHT22;42600;54.408;13.016;2022-09-13T12:07:34;19.70;73.90
420;DHT22;42600;54.408;13.016;2022-09-13T12:10:06;19.60;71.90
420;DHT22;42600;54.408;13.016;2022-09-13T12:12:39;19.60;71.80
420;DHT22;42600;54.408;13.016;2022-09-13T12:15:13;19.60;72.20
420;DHT22;42600;54.408;13.016;2022-09-13T12:17:43;19.60;72.80
420;DHT22;42600;54.408;13.016;2022-09-13T12:20:17;19.60;73.50
420;DHT22;42600;54.408;13.016;2022-09-13T12:22:46;19.60;74.40
420;DHT22;42600;54.408;13.016;2022-09-13T12:25:19;19.60;74.60
420;DHT22;42600;54.408;13.016;2022-09-13T12:27:54;19.60;74.50
420;DHT22;42600;54.408;13.016;2022-09-13T12:30:23;19.60;74.20
420;DHT22;42600;54.408;13.016;2022-09-13T12:32:51;19.60;74.70
420;DHT22;42600;54.408;13.016;2022-09-13T12:35:24;19.70;75.10
420;DHT22;42600;54.408;13.016;2022-09-13T12:38:10;19.60;73.90
420;DHT22;42600;54.408;13.016;2022-09-13T12:40:53;19.60;73.60
420;DHT22;42600;54.408;13.016;2022-09-13T12:49:22;19.70;74.40
420;DHT22;42600;54.408;13.016;2022-09-13T12:52:06;19.70;75.10
420;DHT22;42600;54.408;13.016;2022-09-13T12:54:47;19.70;74.90
420;DHT22;42600;54.408;13.016;2022-09-13T12:57:26;19.80;74.20
420;DHT22;42600;54.408;13.016;2022-09-13T13:00:09;19.70;74.60
420;DHT22;42600;54.408;13.016;2022-09-13T13:02:38;19.70;74.80
420;DHT22;42600;54.408;13.016;2022-09-13T13:05:17;19.70;73.90
420;DHT22;42600;54.408;13.016;2022-09-13T13:07:51;19.70;74.20
420;DHT22;42600;54.408;13.016;2022-09-13T13:10:28;19.70;74.60
420;DHT22;42600;54.408;13.016;2022-09-13T13:13:08;19.70;75.50
420;DHT22;42600;54.408;13.016;2022-09-13T13:16:01;19.80;75.20
420;DHT22;42600;54.408;13.016;2022-09-13T13:18:31;19.80;75.40
420;DHT22;42600;54.408;13.016;2022-09-13T13:21:25;19.90;76.00
420;DHT22;42600;54.408;13.016;2022-09-13T13:24:43;19.90;74.40
420;DHT22;42600;54.408;13.016;2022-09-13T13:27:34;19.90;74.50
420;DHT22;42600;54.408;13.016;2022-09-13T13:33:22;19.90;75.50
420;DHT22;42600;54.408;13.016;2022-09-13T13:35:50;19.90;75.40
420;DHT22;42600;54.408;13.016;2022-09-13T13:38:38;19.90;73.50
420;DHT22;42600;54.408;13.016;2022-09-13T13:41:52;19.90;73.80
420;DHT22;42600;54.408;13.016;2022-09-13T13:51:12;19.90;74.50
420;DHT22;42600;54.408;13.016;2022-09-13T13:53:42;20.00;73.60
420;DHT22;42600;54.408;13.016;2022-09-13T13:56:19;19.90;74.00
420;DHT22;42600;54.408;13.016;2022-09-13T13:58:51;20.00;73.80
420;DHT22;42600;54.408;13.016;2022-09-13T14:01:22;20.00;73.50
420;DHT22;42600;54.408;13.016;2022-09-13T14:04:03;19.90;73.00
420;DHT22;42600;54.408;13.016;2022-09-13T14:06:36;20.00;74.20
420;DHT22;42600;54.408;13.016;2022-09-13T14:09:15;20.00;74.40
420;DHT22;42600;54.408;13.016;2022-09-13T14:11:56;20.00;73.30
420;DHT22;42600;54.408;13.016;2022-09-13T14:14:39;20.00;73.70
420;DHT22;42600;54.408;13.016;2022-09-13T14:17:44;20.00;73.50
420;DHT22;42600;54.408;13.016;2022-09-13T14:20:16;20.00;74.30
420;DHT22;42600;54.408;13.016;2022-09-13T14:22:44;20.00;74.40
420;DHT22;42600;54.408;13.016;2022-09-13T14:25:21;20.00;74.40
420;DHT22;42600;54.408;13.016;2022-09-13T14:27:49;20.00;74.80
420;DHT22;42600;54.408;13.016;2022-09-13T14:30:21;20.00;75.10
420;DHT22;42600;54.408;13.016;2022-09-13T14:32:50;20.00;75.20
420;DHT22;42600;54.408;13.016;2022-09-13T14:35:29;20.00;75.30
420;DHT22;42600;54.408;13.016;2022-09-13T14:38:10;20.00;74.70
420;DHT22;42600;54.408;13.016;2022-09-13T14:40:37;19.90;74.50
420;DHT22;42600;54.408;13.016;2022-09-13T14:43:13;19.80;75.00
420;DHT22;42600;54.408;13.016;2022-09-13T14:45:43;19.80;75.40
420;DHT22;42600;54.408;13.016;2022-09-13T14:48:16;19.80;75.40
420;DHT22;42600;54.408;13.016;2022-09-13T14:50:48;19.80;75.40
420;DHT22;42600;54.408;13.016;2022-09-13T14:53:19;19.80;75.40
420;DHT22;42600;54.408;13.016;2022-09-13T14:55:51;19.70;75.40
420;DHT22;42600;54.408;13.016;2022-09-13T14:58:21;19.70;75.30
420;DHT22;42600;54.408;13.016;2022-09-13T15:00:55;19.60;76.00
420;DHT22;42600;54.408;13.016;2022-09-13T15:03:22;19.60;76.40
420;DHT22;42600;54.408;13.016;2022-09-13T15:05:51;19.60;76.50
420;DHT22;42600;54.408;13.016;2022-09-13T15:08:25;19.50;76.90
420;DHT22;42600;54.408;13.016;2022-09-13T15:10:55;19.50;77.50
420;DHT22;42600;54.408;13.016;2022-09-13T15:13:22;19.50;77.90
420;DHT22;42600;54.408;13.016;2022-09-13T15:15:50;19.50;78.30
420;DHT22;42600;54.408;13.016;2022-09-13T15:18:28;19.50;78.10
420;DHT22;42600;54.408;13.016;2022-09-13T15:20:57;19.40;77.90
420;DHT22;42600;54.408;13.016;2022-09-13T15:23:29;19.40;78.30
420;DHT22;42600;54.408;13.016;2022-09-13T15:26:04;19.40;78.70
420;DHT22;42600;54.408;13.016;2022-09-13T15:28:33;19.40;78.90
420;DHT22;42600;54.408;13.016;2022-09-13T15:31:19;19.30;79.10
420;DHT22;42600;54.408;13.016;2022-09-13T15:33:45;19.30;79.30
420;DHT22;42600;54.408;13.016;2022-09-13T15:38:57;19.20;79.50
420;DHT22;42600;54.408;13.016;2022-09-13T15:41:28;19.20;79.60
420;DHT22;42600;54.408;13.016;2022-09-13T15:43:55;19.10;79.70
420;DHT22;42600;54.408;13.016;2022-09-13T15:46:23;19.10;79.60
420;DHT22;42600;54.408;13.016;2022-09-13T15:48:52;19.10;79.60
420;DHT22;42600;54.408;13.016;2022-09-13T15:51:19;19.10;79.60
420;DHT22;42600;54.408;13.016;2022-09-13T15:53:47;19.10;79.50
420;DHT22;42600;54.408;13.016;2022-09-13T15:56:17;19.10;79.10
420;DHT22;42600;54.408;13.016;2022-09-13T15:58:44;19.00;79.10
420;DHT22;42600;54.408;13.016;2022-09-13T16:01:12;19.00;79.60
420;DHT22;42600;54.408;13.016;2022-09-13T16:03:40;19.00;79.60
420;DHT22;42600;54.408;13.016;2022-09-13T16:06:07;19.00;80.00
420;DHT22;42600;54.408;13.016;2022-09-13T16:08:34;19.00;80.00
420;DHT22;42600;54.408;13.016;2022-09-13T16:11:01;19.00;80.10
420;DHT22;42600;54.408;13.016;2022-09-13T16:13:27;18.90;80.10
420;DHT22;42600;54.408;13.016;2022-09-13T16:15:54;18.90;80.40
420;DHT22;42600;54.408;13.016;2022-09-13T16:18:21;18.90;80.20
420;DHT22;42600;54.408;13.016;2022-09-13T16:20:49;18.90;80.40
420;DHT22;42600;54.408;13.016;2022-09-13T16:23:16;18.80;80.50
420;DHT22;42600;54.408;13.016;2022-09-13T16:25:43;18.80;80.60
420;DHT22;42600;54.408;13.016;2022-09-13T16:28:13;18.80;80.80
420;DHT22;42600;54.408;13.016;2022-09-13T16:30:40;18.80;80.90
420;DHT22;42600;54.408;13.016;2022-09-13T16:33:07;18.70;81.10
420;DHT22;42600;54.408;13.016;2022-09-13T16:35:33;18.70;81.30
420;DHT22;42600;54.408;13.016;2022-09-13T16:38:01;18.70;81.30
420;DHT22;42600;54.408;13.016;2022-09-13T16:40:28;18.70;81.40